Time;durP1;ratioP1;P1;durP2;ratioP2;P2;SDS_P1;SDS_P2;PMS_P1;PMS_P2;Temp;Humidity;BMP_temperature;BMP_pressure;BME280_temperature;BME280_humidity;BME280_pressure;Samples;Min_cycle;Max_cycle;Signal;HPM_P1;HPM_P2
2023/01/31 00:01:33;;;;;;;5.82;2.80;;;;;;;;;;5075321;28;20204;-86
2023/01/31 00:04:03;;;;;;;3.38;2.15;;;;;;;;;;5075596;28;20272;-87
2023/01/31 00:06:32;;;;;;;4.35;1.67;;;;;;;;;;5075663;28;20685;-87
2023/01/31 00:09:02;;;;;;;5.30;2.30;;;;;;;;;;5075018;28;20291;-87
2023/01/31 00:11:31;;;;;;;3.45;1.65;;;;;;;;;;5075854;28;20292;-88
2023/01/31 00:14:00;;;;;;;3.58;2.00;;;;;;;;;;5075597;28;20642;-87
2023/01/31 00:16:28;;;;;;;3.17;1.77;;;;;;;;;;5074987;28;20256;-87
2023/01/31 00:18:57;;;;;;;3.58;2.22;;;;;;;;;;5075083;28;20297;-88
2023/01/31 00:21:28;;;;;;;6.50;2.38;;;;;;;;;;5074749;28;20292;-88
2023/01/31 00:23:58;;;;;;;9.35;2.22;;;;;;;;;;5075036;28;20685;-87
2023/01/31 00:26:29;;;;;;;5.18;1.90;;;;;;;;;;5075302;28;20991;-87
2023/01/31 00:28:58;;;;;;;4.00;2.10;;;;;;;;;;5074970;28;20189;-87
2023/01/31 00:31:27;;;;;;;4.03;1.80;;;;;;;;;;5075292;28;20569;-89
2023/01/31 00:33:57;;;;;;;3.80;2.03;;;;;;;;;;5074714;28;20197;-87
2023/01/31 00:36:28;;;;;;;12.20;2.63;;;;;;;;;;5074136;28;20231;-87
2023/01/31 00:38:58;;;;;;;4.30;2.15;;;;;;;;;;5074807;28;20621;-88
2023/01/31 00:41:27;;;;;;;7.07;2.30;;;;;;;;;;5074836;28;20630;-88
2023/01/31 00:43:55;;;;;;;5.82;2.42;;;;;;;;;;5074920;28;20197;-87
2023/01/31 00:46:23;;;;;;;4.90;2.63;;;;;;;;;;5074272;28;20282;-87
2023/01/31 00:48:51;;;;;;;7.85;2.00;;;;;;;;;;5074703;28;20227;-87
2023/01/31 00:51:21;;;;;;;4.03;2.25;;;;;;;;;;5075698;28;20288;-86
2023/01/31 00:53:49;;;;;;;6.20;2.28;;;;;;;;;;5075618;28;20197;-87
2023/01/31 00:56:18;;;;;;;11.25;3.35;;;;;;;;;;5074336;28;20224;-87
2023/01/31 00:58:46;;;;;;;6.20;2.83;;;;;;;;;;5073903;28;20296;-87
2023/01/31 01:01:18;;;;;;;7.18;3.35;;;;;;;;;;5075523;28;20641;-87
2023/01/31 01:03:46;;;;;;;10.68;2.50;;;;;;;;;;5074770;28;20272;-87
2023/01/31 01:06:14;;;;;;;4.80;2.40;;;;;;;;;;5074537;28;20221;-88
2023/01/31 01:08:43;;;;;;;8.77;2.45;;;;;;;;;;5074000;28;20627;-87
2023/01/31 01:11:13;;;;;;;5.35;2.40;;;;;;;;;;5074067;28;20235;-88
2023/01/31 01:13:41;;;;;;;5.85;2.20;;;;;;;;;;5074553;28;20568;-88
2023/01/31 01:16:12;;;;;;;7.07;3.03;;;;;;;;;;5074186;28;20312;-87
2023/01/31 01:18:40;;;;;;;4.70;2.38;;;;;;;;;;5074264;28;20274;-87
2023/01/31 01:21:10;;;;;;;6.38;3.17;;;;;;;;;;5073266;28;20212;-88
2023/01/31 01:23:38;;;;;;;8.52;2.80;;;;;;;;;;5074096;28;20250;-87
2023/01/31 01:26:12;;;;;;;7.65;3.35;;;;;;;;;;5073848;28;20219;-87
2023/01/31 01:28:40;;;;;;;5.97;2.25;;;;;;;;;;5073421;28;20664;-87
2023/01/31 01:31:08;;;;;;;11.38;3.03;;;;;;;;;;5073608;28;20292;-87
2023/01/31 01:33:36;;;;;;;10.70;4.60;;;;;;;;;;5074294;28;20201;-87
2023/01/31 01:36:06;;;;;;;6.75;2.63;;;;;;;;;;5073589;28;20228;-87
2023/01/31 01:38:34;;;;;;;8.30;2.58;;;;;;;;;;5073408;28;20203;-87
2023/01/31 01:41:02;;;;;;;4.53;2.30;;;;;;;;;;5073954;28;20207;-88
2023/01/31 01:43:46;;;;;;;3.83;1.50;;;;;;;;;;5073862;28;20200;-88
2023/01/31 01:46:18;;;;;;;7.47;2.10;;;;;;;;;;5074429;28;20252;-87
2023/01/31 01:48:48;;;;;;;4.18;1.95;;;;;;;;;;5073265;28;20268;-88
2023/01/31 01:51:18;;;;;;;6.38;2.53;;;;;;;;;;5073851;28;20209;-87
2023/01/31 01:53:50;;;;;;;8.38;2.85;;;;;;;;;;5073709;28;20208;-88
2023/01/31 01:56:21;;;;;;;3.60;1.85;;;;;;;;;;5073329;28;20687;-87
2023/01/31 01:58:56;;;;;;;4.05;2.20;;;;;;;;;;5074039;28;20672;-88
2023/01/31 02:01:27;;;;;;;4.93;2.08;;;;;;;;;;5073472;28;20575;-88
2023/01/31 02:03:54;;;;;;;7.95;2.00;;;;;;;;;;5073407;28;20192;-88
2023/01/31 02:06:22;;;;;;;5.53;2.30;;;;;;;;;;5073211;28;20304;-87
2023/01/31 02:08:50;;;;;;;8.65;2.25;;;;;;;;;;5072181;28;20322;-88
2023/01/31 02:11:24;;;;;;;4.53;2.30;;;;;;;;;;5073435;28;20274;-88
2023/01/31 02:13:58;;;;;;;8.65;2.40;;;;;;;;;;5073233;28;20273;-87
2023/01/31 02:16:25;;;;;;;5.28;1.98;;;;;;;;;;5073350;28;20646;-87
2023/01/31 02:18:53;;;;;;;5.18;2.30;;;;;;;;;;5073020;28;20673;-88
2023/01/31 02:22:05;;;;;;;9.52;3.05;;;;;;;;;;5073483;28;20284;-87
2023/01/31 02:25:36;;;;;;;6.40;2.47;;;;;;;;;;5073250;28;20209;-87
2023/01/31 02:28:39;;;;;;;4.55;2.20;;;;;;;;;;5068083;28;20244;-87
2023/01/31 02:31:59;;;;;;;7.32;2.58;;;;;;;;;;5073027;28;20551;-88
2023/01/31 02:34:37;;;;;;;7.18;2.80;;;;;;;;;;5011459;28;20187;-86
2023/01/31 02:37:17;;;;;;;4.03;1.73;;;;;;;;;;5011613;28;20233;-85
2023/01/31 02:39:54;;;;;;;4.82;2.35;;;;;;;;;;5055816;28;20295;-85
2023/01/31 02:42:28;;;;;;;5.82;1.67;;;;;;;;;;5073542;28;20729;-85
2023/01/31 02:45:03;;;;;;;4.43;1.75;;;;;;;;;;5073643;28;20316;-86
2023/01/31 02:47:52;;;;;;;10.63;3.28;;;;;;;;;;5073609;28;20230;-85
2023/01/31 02:50:27;;;;;;;4.45;1.90;;;;;;;;;;5073596;28;20597;-85
2023/01/31 02:53:00;;;;;;;4.47;2.00;;;;;;;;;;5073470;28;20181;-86
2023/01/31 02:58:18;;;;;;;2.00;1.58;;;;;;;;;;5072543;28;20204;-85
2023/01/31 03:00:46;;;;;;;4.10;1.90;;;;;;;;;;5074079;28;20636;-85
2023/01/31 03:03:21;;;;;;;5.95;2.33;;;;;;;;;;5073780;28;20642;-85
2023/01/31 03:07:04;;;;;;;2.75;1.70;;;;;;;;;;5073860;28;20221;-85
2023/01/31 03:09:40;;;;;;;3.58;2.00;;;;;;;;;;5072949;28;20272;-84
2023/01/31 03:12:32;;;;;;;5.13;2.30;;;;;;;;;;5073661;28;20185;-85
2023/01/31 03:15:16;;;;;;;3.10;1.45;;;;;;;;;;5073826;28;20262;-85
2023/01/31 03:17:54;;;;;;;3.70;1.45;;;;;;;;;;5074077;28;20661;-84
2023/01/31 03:20:25;;;;;;;5.05;1.60;;;;;;;;;;5074578;28;20209;-85
2023/01/31 03:22:56;;;;;;;2.40;1.58;;;;;;;;;;5077476;28;20207;-85
2023/01/31 03:25:27;;;;;;;7.32;2.00;;;;;;;;;;5076830;28;20228;-85
2023/01/31 03:27:57;;;;;;;4.60;2.05;;;;;;;;;;5077031;28;20228;-85
2023/01/31 03:30:30;;;;;;;3.08;1.65;;;;;;;;;;5076931;28;20196;-85
2023/01/31 03:33:01;;;;;;;2.92;2.13;;;;;;;;;;5077337;28;20213;-85
2023/01/31 03:35:31;;;;;;;4.40;1.70;;;;;;;;;;5076843;28;20304;-85
2023/01/31 03:38:06;;;;;;;5.53;2.30;;;;;;;;;;5076244;28;20221;-86
2023/01/31 03:40:38;;;;;;;6.75;2.10;;;;;;;;;;5077152;28;20193;-85
2023/01/31 03:43:12;;;;;;;3.83;1.55;;;;;;;;;;5077927;28;20288;-85
2023/01/31 03:45:44;;;;;;;3.67;1.90;;;;;;;;;;5076270;28;20709;-85
2023/01/31 03:48:13;;;;;;;7.65;2.40;;;;;;;;;;5076735;28;20189;-85
2023/01/31 03:50:43;;;;;;;2.05;1.25;;;;;;;;;;5076624;28;20252;-85
2023/01/31 03:53:16;;;;;;;3.70;1.92;;;;;;;;;;5076972;28;20637;-85
2023/01/31 03:55:48;;;;;;;4.78;2.17;;;;;;;;;;5076563;28;20224;-85
2023/01/31 03:58:18;;;;;;;6.82;1.80;;;;;;;;;;5076293;28;20227;-85
2023/01/31 04:00:47;;;;;;;6.18;2.50;;;;;;;;;;5076693;28;20886;-85
2023/01/31 04:03:20;;;;;;;3.47;1.30;;;;;;;;;;5075835;28;20296;-85
2023/01/31 04:05:48;;;;;;;3.53;1.30;;;;;;;;;;5076766;28;20303;-85
2023/01/31 04:08:17;;;;;;;4.18;1.88;;;;;;;;;;5075652;28;20569;-85
2023/01/31 04:10:44;;;;;;;3.28;1.30;;;;;;;;;;5076413;28;20292;-86
2023/01/31 04:13:12;;;;;;;4.03;1.75;;;;;;;;;;5077186;28;20225;-86
2023/01/31 04:15:39;;;;;;;2.15;1.67;;;;;;;;;;5076329;28;20304;-85
2023/01/31 04:18:07;;;;;;;3.25;1.60;;;;;;;;;;5075936;28;20887;-85
2023/01/31 04:20:34;;;;;;;8.95;2.22;;;;;;;;;;5075337;28;20211;-85
2023/01/31 04:23:03;;;;;;;3.42;2.13;;;;;;;;;;5075986;28;20364;-85
2023/01/31 04:25:32;;;;;;;3.85;1.42;;;;;;;;;;5076144;28;20557;-85
2023/01/31 04:27:59;;;;;;;2.80;2.28;;;;;;;;;;5075744;28;20273;-85
2023/01/31 04:30:27;;;;;;;10.85;2.50;;;;;;;;;;5076135;28;20312;-85
2023/01/31 04:32:55;;;;;;;2.50;1.33;;;;;;;;;;5075410;28;20239;-85
2023/01/31 04:35:22;;;;;;;3.97;2.22;;;;;;;;;;5075503;28;20255;-84
2023/01/31 04:37:50;;;;;;;2.63;1.58;;;;;;;;;;5076059;28;20657;-85
2023/01/31 04:40:18;;;;;;;1.58;1.13;;;;;;;;;;5073754;28;20284;-85
2023/01/31 04:42:47;;;;;;;2.15;1.52;;;;;;;;;;5075957;28;20587;-85
2023/01/31 04:45:14;;;;;;;4.30;1.90;;;;;;;;;;5076044;28;20248;-85
2023/01/31 04:47:42;;;;;;;2.38;1.38;;;;;;;;;;5076059;28;20630;-85
2023/01/31 04:50:11;;;;;;;4.50;1.92;;;;;;;;;;5075375;28;20236;-85
2023/01/31 04:52:38;;;;;;;2.65;1.80;;;;;;;;;;5076141;28;20285;-85
2023/01/31 04:55:07;;;;;;;1.80;1.05;;;;;;;;;;5075074;28;20223;-86
2023/01/31 04:57:34;;;;;;;4.55;1.85;;;;;;;;;;5074812;28;20217;-85
2023/01/31 05:00:04;;;;;;;7.40;2.45;;;;;;;;;;5074592;28;20196;-86
2023/01/31 05:02:31;;;;;;;3.00;1.10;;;;;;;;;;5075189;28;20209;-85
2023/01/31 05:04:59;;;;;;;4.50;1.85;;;;;;;;;;5075224;28;20229;-85
2023/01/31 05:07:26;;;;;;;3.10;1.27;;;;;;;;;;5074800;28;20244;-85
2023/01/31 05:09:54;;;;;;;5.93;2.05;;;;;;;;;;5074892;28;20244;-85
2023/01/31 05:12:21;;;;;;;2.72;1.60;;;;;;;;;;5075650;28;20628;-84
2023/01/31 05:14:50;;;;;;;4.72;1.75;;;;;;;;;;5074869;28;20732;-85
2023/01/31 05:17:24;;;;;;;6.00;2.50;;;;;;;;;;5074374;28;20197;-85
2023/01/31 05:19:52;;;;;;;1.52;1.27;;;;;;;;;;5074267;28;20196;-85
2023/01/31 05:22:21;;;;;;;4.28;1.75;;;;;;;;;;5074283;28;20229;-85
2023/01/31 05:24:49;;;;;;;4.65;2.08;;;;;;;;;;5074452;28;20275;-85
2023/01/31 05:27:17;;;;;;;2.88;1.60;;;;;;;;;;5077436;28;20197;-85
2023/01/31 05:29:44;;;;;;;2.00;1.33;;;;;;;;;;5073831;28;20201;-85
2023/01/31 05:32:13;;;;;;;3.10;1.08;;;;;;;;;;5073993;28;20201;-85
2023/01/31 05:34:42;;;;;;;1.63;1.50;;;;;;;;;;5074286;28;20216;-85
2023/01/31 05:37:09;;;;;;;1.65;0.90;;;;;;;;;;5073665;28;20291;-85
2023/01/31 05:39:37;;;;;;;3.35;1.48;;;;;;;;;;5073429;28;20361;-86
2023/01/31 05:42:05;;;;;;;2.33;1.42;;;;;;;;;;5074524;28;20201;-85
2023/01/31 05:44:32;;;;;;;4.65;1.80;;;;;;;;;;5074657;28;20326;-84
2023/01/31 05:47:00;;;;;;;1.95;1.33;;;;;;;;;;5073878;28;20229;-85
2023/01/31 05:49:32;;;;;;;2.65;1.60;;;;;;;;;;5073736;28;20205;-84
2023/01/31 05:52:01;;;;;;;2.83;1.70;;;;;;;;;;5076723;28;20192;-85
2023/01/31 05:54:28;;;;;;;2.63;1.25;;;;;;;;;;5075171;28;20292;-84
2023/01/31 05:56:56;;;;;;;2.25;1.13;;;;;;;;;;5074490;28;20292;-84
2023/01/31 05:59:25;;;;;;;1.20;1.10;;;;;;;;;;5073536;28;20260;-85
2023/01/31 06:01:53;;;;;;;3.10;1.60;;;;;;;;;;5075512;28;20243;-85
2023/01/31 06:04:20;;;;;;;2.42;1.20;;;;;;;;;;5073778;28;20197;-84
2023/01/31 06:06:48;;;;;;;2.60;1.10;;;;;;;;;;5073935;28;20600;-84
2023/01/31 06:09:16;;;;;;;1.52;1.30;;;;;;;;;;5072475;28;20299;-84
2023/01/31 06:11:44;;;;;;;2.00;1.40;;;;;;;;;;5073580;28;20284;-84
2023/01/31 06:14:11;;;;;;;1.73;1.40;;;;;;;;;;5073467;28;20212;-85
2023/01/31 06:16:39;;;;;;;1.45;1.10;;;;;;;;;;5073357;28;20316;-85
2023/01/31 06:19:06;;;;;;;2.40;1.35;;;;;;;;;;5073149;28;20282;-85
2023/01/31 06:21:34;;;;;;;2.25;1.30;;;;;;;;;;5073253;28;20296;-85
2023/01/31 06:24:03;;;;;;;1.23;1.00;;;;;;;;;;5073016;28;20247;-84
2023/01/31 06:26:32;;;;;;;0.88;0.88;;;;;;;;;;5073579;28;20299;-85
2023/01/31 06:29:00;;;;;;;1.30;1.20;;;;;;;;;;5060200;28;20643;-86
2023/01/31 06:31:27;;;;;;;6.00;1.77;;;;;;;;;;5054075;28;20272;-85
2023/01/31 06:33:55;;;;;;;1.00;0.90;;;;;;;;;;5054219;28;20702;-85
2023/01/31 06:36:22;;;;;;;2.25;1.25;;;;;;;;;;5053557;28;20316;-84
2023/01/31 06:38:51;;;;;;;1.90;1.30;;;;;;;;;;5052480;28;20320;-85
2023/01/31 06:41:19;;;;;;;1.10;0.95;;;;;;;;;;5053213;28;20233;-86
2023/01/31 06:43:48;;;;;;;1.10;1.00;;;;;;;;;;5053931;28;20202;-86
2023/01/31 06:46:16;;;;;;;1.40;1.30;;;;;;;;;;5052761;28;20217;-85
2023/01/31 06:48:43;;;;;;;2.35;1.60;;;;;;;;;;5053584;28;20281;-86
2023/01/31 06:51:11;;;;;;;2.90;1.10;;;;;;;;;;5054431;28;20198;-85
2023/01/31 06:53:38;;;;;;;1.00;1.00;;;;;;;;;;5053681;28;20237;-86
2023/01/31 06:56:07;;;;;;;0.98;0.90;;;;;;;;;;5059459;28;20260;-86
2023/01/31 06:58:34;;;;;;;5.10;3.60;;;;;;;;;;5070983;28;20231;-85
2023/01/31 07:01:06;;;;;;;1.30;1.10;;;;;;;;;;5081899;28;20296;-88
2023/01/31 07:03:34;;;;;;;3.45;1.48;;;;;;;;;;5081920;28;20215;-86
2023/01/31 07:06:01;;;;;;;2.60;1.60;;;;;;;;;;5081250;28;20248;-86
2023/01/31 07:08:29;;;;;;;5.43;1.10;;;;;;;;;;5080923;28;20240;-86
2023/01/31 07:10:57;;;;;;;2.28;1.52;;;;;;;;;;5080938;28;20205;-86
2023/01/31 07:13:25;;;;;;;1.33;1.23;;;;;;;;;;5067239;28;20718;-85
2023/01/31 07:15:52;;;;;;;1.38;1.27;;;;;;;;;;5072422;28;20224;-86
2023/01/31 07:18:21;;;;;;;1.75;1.38;;;;;;;;;;5079538;28;20291;-85
2023/01/31 07:20:49;;;;;;;4.43;1.95;;;;;;;;;;5081632;28;20236;-86
2023/01/31 07:23:17;;;;;;;2.35;2.13;;;;;;;;;;5078981;28;20280;-86
2023/01/31 07:25:44;;;;;;;1.48;1.13;;;;;;;;;;5080427;28;20248;-85
2023/01/31 07:28:12;;;;;;;3.28;1.70;;;;;;;;;;5079797;28;20292;-86
2023/01/31 07:30:52;;;;;;;1.15;1.00;;;;;;;;;;5080705;28;20216;-86
2023/01/31 07:33:20;;;;;;;2.80;2.60;;;;;;;;;;5080915;28;20248;-85
2023/01/31 07:35:48;;;;;;;2.90;1.60;;;;;;;;;;5079781;28;20455;-85
2023/01/31 07:38:15;;;;;;;2.78;1.73;;;;;;;;;;5080663;28;20673;-86
2023/01/31 07:40:43;;;;;;;2.00;1.52;;;;;;;;;;5079198;28;20296;-87
2023/01/31 07:43:10;;;;;;;1.40;1.20;;;;;;;;;;5080436;28;20634;-86
2023/01/31 07:45:41;;;;;;;3.42;1.30;;;;;;;;;;5079802;28;20713;-87
2023/01/31 07:48:09;;;;;;;2.50;1.95;;;;;;;;;;5079048;28;20192;-87
2023/01/31 07:50:37;;;;;;;3.35;1.60;;;;;;;;;;5080358;28;20232;-87
2023/01/31 07:53:05;;;;;;;1.73;1.40;;;;;;;;;;5080889;28;20233;-86
2023/01/31 07:55:33;;;;;;;2.58;1.33;;;;;;;;;;5080383;28;20252;-86
2023/01/31 07:58:00;;;;;;;1.77;1.42;;;;;;;;;;5079655;28;20201;-87
2023/01/31 08:03:34;;;;;;;2.80;1.70;;;;;;;;;;5078529;28;20204;-87
2023/01/31 08:06:06;;;;;;;1.80;1.70;;;;;;;;;;5078664;28;20224;-86
2023/01/31 08:08:34;;;;;;;1.60;1.40;;;;;;;;;;5077897;28;20236;-86
2023/01/31 08:11:03;;;;;;;3.17;1.90;;;;;;;;;;5078421;28;20201;-87
2023/01/31 08:13:32;;;;;;;4.63;2.60;;;;;;;;;;5079854;28;20643;-86
2023/01/31 08:16:00;;;;;;;2.60;1.45;;;;;;;;;;5079637;28;20595;-86
2023/01/31 08:18:27;;;;;;;8.73;2.17;;;;;;;;;;5078708;28;20211;-87
2023/01/31 08:20:56;;;;;;;2.17;1.50;;;;;;;;;;5077793;28;20307;-87
2023/01/31 08:23:25;;;;;;;2.97;2.10;;;;;;;;;;5078312;28;20632;-86
2023/01/31 08:25:52;;;;;;;3.72;1.67;;;;;;;;;;5078365;28;20323;-86
2023/01/31 08:28:20;;;;;;;2.75;1.88;;;;;;;;;;5078732;28;20270;-88
2023/01/31 08:30:47;;;;;;;5.15;2.08;;;;;;;;;;5078046;28;20233;-86
2023/01/31 08:33:15;;;;;;;2.67;1.67;;;;;;;;;;5078057;28;20201;-87
2023/01/31 08:35:42;;;;;;;7.00;2.05;;;;;;;;;;5078119;28;20253;-86
2023/01/31 08:38:10;;;;;;;2.53;1.45;;;;;;;;;;5078691;28;20231;-86
2023/01/31 08:40:39;;;;;;;5.13;2.33;;;;;;;;;;5079184;28;20346;-86
2023/01/31 08:43:06;;;;;;;2.13;1.52;;;;;;;;;;5078423;28;20254;-85
2023/01/31 08:45:41;;;;;;;3.83;2.25;;;;;;;;;;5079276;28;20263;-85
2023/01/31 08:48:08;;;;;;;5.28;3.20;;;;;;;;;;5078751;28;20288;-86
2023/01/31 08:50:36;;;;;;;3.90;2.55;;;;;;;;;;5079338;28;20704;-86
2023/01/31 08:53:05;;;;;;;3.58;1.95;;;;;;;;;;5078686;28;20288;-86
2023/01/31 08:55:36;;;;;;;4.38;2.15;;;;;;;;;;5078079;28;20271;-86
2023/01/31 08:58:04;;;;;;;4.70;2.20;;;;;;;;;;5077146;28;20209;-86
2023/01/31 09:00:32;;;;;;;4.95;2.58;;;;;;;;;;5078226;28;20235;-86
2023/01/31 09:03:01;;;;;;;1.77;1.67;;;;;;;;;;5077307;28;20196;-85
2023/01/31 09:05:31;;;;;;;2.15;1.55;;;;;;;;;;5077980;28;20307;-86
2023/01/31 09:07:59;;;;;;;4.32;2.05;;;;;;;;;;5077139;28;20208;-86
2023/01/31 09:10:27;;;;;;;2.97;2.67;;;;;;;;;;5077140;28;20197;-86
2023/01/31 09:12:54;;;;;;;4.93;3.13;;;;;;;;;;5076829;28;20224;-87
2023/01/31 09:15:23;;;;;;;2.63;2.20;;;;;;;;;;5077232;28;20320;-87
2023/01/31 09:17:51;;;;;;;6.20;2.50;;;;;;;;;;5075935;28;20236;-87
2023/01/31 09:20:18;;;;;;;4.10;2.95;;;;;;;;;;5076099;28;20308;-86
2023/01/31 09:22:46;;;;;;;2.35;2.00;;;;;;;;;;5077210;28;20208;-86
2023/01/31 09:25:13;;;;;;;4.90;2.40;;;;;;;;;;5076600;28;20229;-86
2023/01/31 09:27:41;;;;;;;3.17;2.47;;;;;;;;;;5076943;28;20211;-87
2023/01/31 09:30:11;;;;;;;6.25;2.28;;;;;;;;;;5076302;28;20284;-86
2023/01/31 09:32:40;;;;;;;5.38;2.60;;;;;;;;;;5077752;28;20277;-87
2023/01/31 09:35:09;;;;;;;3.15;1.70;;;;;;;;;;5076325;28;20247;-86
2023/01/31 09:37:37;;;;;;;4.60;1.92;;;;;;;;;;5076839;28;20243;-87
2023/01/31 09:40:05;;;;;;;5.90;2.33;;;;;;;;;;5077010;28;20264;-86
2023/01/31 09:42:37;;;;;;;6.18;2.08;;;;;;;;;;5077601;28;20288;-86
2023/01/31 09:45:10;;;;;;;4.00;2.75;;;;;;;;;;5077058;28;20348;-87
2023/01/31 09:47:42;;;;;;;2.47;1.90;;;;;;;;;;5077313;28;20526;-86
2023/01/31 09:50:20;;;;;;;5.35;3.28;;;;;;;;;;5077460;28;20216;-86
2023/01/31 09:52:53;;;;;;;4.82;2.65;;;;;;;;;;5077502;28;20271;-86
2023/01/31 09:55:26;;;;;;;3.38;2.40;;;;;;;;;;5077281;28;20220;-85
2023/01/31 09:58:01;;;;;;;3.53;2.05;;;;;;;;;;5076982;28;20291;-86
2023/01/31 10:00:34;;;;;;;5.97;2.60;;;;;;;;;;5077432;28;20295;-86
2023/01/31 10:03:33;;;;;;;2.88;2.20;;;;;;;;;;5077701;28;20193;-86
2023/01/31 10:06:07;;;;;;;9.18;2.97;;;;;;;;;;5076209;28;20221;-86
2023/01/31 10:08:43;;;;;;;6.35;3.13;;;;;;;;;;5075813;28;20269;-87
2023/01/31 10:11:15;;;;;;;6.43;3.05;;;;;;;;;;5076558;28;20203;-86
2023/01/31 10:13:49;;;;;;;3.00;2.40;;;;;;;;;;5077399;28;20292;-86
2023/01/31 10:16:25;;;;;;;5.88;3.63;;;;;;;;;;5076918;28;20229;-85
2023/01/31 10:18:58;;;;;;;5.57;3.40;;;;;;;;;;5075999;28;20208;-86
2023/01/31 10:21:30;;;;;;;7.85;3.88;;;;;;;;;;5076326;28;20263;-85
2023/01/31 10:24:02;;;;;;;5.55;2.97;;;;;;;;;;5076924;28;20283;-85
2023/01/31 10:26:31;;;;;;;13.48;3.80;;;;;;;;;;5075797;28;20767;-85
2023/01/31 10:29:03;;;;;;;7.18;3.05;;;;;;;;;;5075480;28;20237;-87
2023/01/31 10:31:35;;;;;;;5.93;2.85;;;;;;;;;;5075394;28;20197;-86
2023/01/31 10:34:09;;;;;;;9.57;4.03;;;;;;;;;;5074974;28;20272;-87
2023/01/31 10:36:40;;;;;;;16.33;10.90;;;;;;;;;;5074183;28;20225;-86
2023/01/31 10:39:15;;;;;;;9.65;3.80;;;;;;;;;;5074397;28;20664;-86
2023/01/31 10:42:09;;;;;;;4.07;3.63;;;;;;;;;;5074719;28;20212;-86
2023/01/31 10:44:47;;;;;;;6.97;3.67;;;;;;;;;;5073874;28;20308;-86
2023/01/31 10:47:17;;;;;;;5.63;2.88;;;;;;;;;;5074600;28;20243;-86
2023/01/31 10:49:49;;;;;;;8.98;3.13;;;;;;;;;;5073012;28;20211;-87
2023/01/31 10:52:56;;;;;;;5.13;2.50;;;;;;;;;;5074226;28;20201;-87
2023/01/31 10:55:42;;;;;;;6.43;3.10;;;;;;;;;;5043350;28;20578;-87
2023/01/31 10:58:14;;;;;;;8.55;3.08;;;;;;;;;;5074663;28;20208;-86
2023/01/31 11:00:41;;;;;;;5.07;2.60;;;;;;;;;;5074612;28;20196;-87
2023/01/31 11:03:11;;;;;;;4.80;3.92;;;;;;;;;;5074456;28;20726;-86
2023/01/31 11:05:48;;;;;;;3.55;3.08;;;;;;;;;;5074633;28;20216;-88
2023/01/31 11:08:35;;;;;;;10.15;3.53;;;;;;;;;;5072924;28;20251;-87
2023/01/31 11:11:08;;;;;;;3.05;2.58;;;;;;;;;;5073482;28;20232;-86
2023/01/31 11:13:36;;;;;;;3.95;2.45;;;;;;;;;;5074143;28;20205;-86
2023/01/31 11:16:06;;;;;;;6.53;3.85;;;;;;;;;;5074295;28;20699;-87
2023/01/31 11:18:37;;;;;;;3.80;2.63;;;;;;;;;;5074247;28;20205;-86
2023/01/31 11:21:06;;;;;;;7.63;2.47;;;;;;;;;;5073125;28;20229;-87
2023/01/31 11:23:35;;;;;;;4.15;3.10;;;;;;;;;;5073702;28;20632;-87
2023/01/31 11:26:03;;;;;;;4.00;2.97;;;;;;;;;;5072548;28;20320;-87
2023/01/31 11:28:36;;;;;;;3.17;2.53;;;;;;;;;;5071624;28;20211;-85
2023/01/31 11:31:06;;;;;;;3.08;2.25;;;;;;;;;;5073686;28;20592;-87
2023/01/31 11:33:47;;;;;;;7.57;3.53;;;;;;;;;;5073257;28;20288;-86
2023/01/31 11:36:21;;;;;;;3.65;2.60;;;;;;;;;;5072561;28;20224;-86
2023/01/31 11:38:49;;;;;;;3.42;2.13;;;;;;;;;;5072626;28;20185;-86
2023/01/31 11:41:35;;;;;;;4.72;1.98;;;;;;;;;;5073585;28;20672;-86
2023/01/31 11:44:15;;;;;;;2.22;1.85;;;;;;;;;;5077389;28;20546;-86
2023/01/31 11:46:55;;;;;;;4.75;2.65;;;;;;;;;;5077498;28;20188;-86
2023/01/31 11:49:29;;;;;;;3.97;2.05;;;;;;;;;;5077115;28;20265;-87
2023/01/31 11:52:12;;;;;;;7.40;2.88;;;;;;;;;;5075634;28;20243;-86
2023/01/31 11:54:48;;;;;;;2.92;2.17;;;;;;;;;;5077151;28;20595;-86
2023/01/31 11:57:22;;;;;;;2.55;1.90;;;;;;;;;;5077013;28;20193;-86
2023/01/31 12:00:00;;;;;;;2.03;1.63;;;;;;;;;;5074940;28;20212;-86
2023/01/31 12:02:38;;;;;;;5.47;2.50;;;;;;;;;;5075539;28;20274;-86
2023/01/31 12:05:15;;;;;;;3.90;1.95;;;;;;;;;;5076558;28;20232;-86
2023/01/31 12:07:52;;;;;;;5.80;2.85;;;;;;;;;;5076345;28;20287;-86
2023/01/31 12:10:42;;;;;;;3.95;2.50;;;;;;;;;;5075399;28;20675;-85
2023/01/31 12:13:28;;;;;;;3.17;2.25;;;;;;;;;;5076622;28;20291;-87
2023/01/31 12:15:59;;;;;;;2.75;1.73;;;;;;;;;;5076480;28;20303;-87
2023/01/31 12:18:51;;;;;;;2.95;2.03;;;;;;;;;;5075565;28;20193;-86
2023/01/31 12:21:34;;;;;;;2.20;1.88;;;;;;;;;;5076158;28;20185;-87
2023/01/31 12:24:12;;;;;;;2.38;1.75;;;;;;;;;;5075654;28;20948;-86
2023/01/31 12:26:47;;;;;;;4.20;2.15;;;;;;;;;;5075908;28;20223;-86
2023/01/31 12:29:42;;;;;;;4.43;1.98;;;;;;;;;;5075128;28;20210;-88
2023/01/31 12:32:24;;;;;;;4.00;2.00;;;;;;;;;;5075968;28;20217;-87
2023/01/31 12:35:12;;;;;;;3.53;2.00;;;;;;;;;;5075039;28;20303;-90
2023/01/31 12:37:51;;;;;;;6.28;2.25;;;;;;;;;;5075634;28;20193;-87
2023/01/31 12:40:37;;;;;;;2.45;1.90;;;;;;;;;;5075035;28;20213;-86
2023/01/31 12:43:17;;;;;;;3.65;2.10;;;;;;;;;;5076954;28;20583;-87
2023/01/31 12:45:58;;;;;;;1.85;1.50;;;;;;;;;;5075853;28;20292;-87
2023/01/31 12:49:00;;;;;;;2.20;1.80;;;;;;;;;;5075641;28;20266;-87
2023/01/31 12:51:40;;;;;;;4.53;1.60;;;;;;;;;;5041783;28;20283;-86
2023/01/31 12:54:40;;;;;;;2.15;1.40;;;;;;;;;;5075131;28;20228;-87
2023/01/31 12:57:29;;;;;;;1.70;1.30;;;;;;;;;;5075016;28;20276;-86
2023/01/31 13:00:09;;;;;;;5.03;1.52;;;;;;;;;;5054830;28;20193;-86
2023/01/31 13:02:44;;;;;;;2.22;1.50;;;;;;;;;;5055157;28;20217;-86
2023/01/31 13:05:25;;;;;;;1.63;1.25;;;;;;;;;;5054964;28;20304;-87
2023/01/31 13:07:57;;;;;;;1.40;1.30;;;;;;;;;;5055327;28;20189;-86
2023/01/31 13:10:35;;;;;;;0.80;0.80;;;;;;;;;;5054778;28;20202;-87
2023/01/31 13:13:06;;;;;;;1.48;1.38;;;;;;;;;;5056148;28;20272;-87
2023/01/31 13:15:40;;;;;;;2.22;1.20;;;;;;;;;;5055797;28;20931;-86
2023/01/31 13:18:10;;;;;;;1.95;1.20;;;;;;;;;;5055748;28;20292;-87
2023/01/31 13:20:41;;;;;;;1.52;1.38;;;;;;;;;;5054942;28;20228;-86
2023/01/31 13:23:16;;;;;;;2.20;1.90;;;;;;;;;;5062933;28;20231;-86
2023/01/31 13:25:48;;;;;;;1.58;1.30;;;;;;;;;;5074085;28;20671;-87
2023/01/31 13:28:21;;;;;;;1.98;1.52;;;;;;;;;;5067910;28;20288;-86
2023/01/31 13:30:53;;;;;;;2.45;1.20;;;;;;;;;;5075078;28;20292;-87
2023/01/31 13:33:31;;;;;;;1.30;1.20;;;;;;;;;;5075094;28;20272;-86
2023/01/31 13:36:08;;;;;;;1.30;1.20;;;;;;;;;;5073805;28;20224;-86
2023/01/31 13:38:40;;;;;;;1.35;1.00;;;;;;;;;;5074163;28;20735;-86
2023/01/31 13:41:12;;;;;;;1.45;1.35;;;;;;;;;;5075584;28;20630;-86
2023/01/31 13:43:41;;;;;;;1.55;1.15;;;;;;;;;;5075479;28;20224;-87
2023/01/31 13:46:10;;;;;;;0.90;0.90;;;;;;;;;;5076435;28;20244;-87
2023/01/31 13:48:40;;;;;;;0.82;0.82;;;;;;;;;;5074531;28;20287;-87
2023/01/31 13:51:16;;;;;;;0.93;0.85;;;;;;;;;;5075000;28;20634;-86
2023/01/31 13:53:48;;;;;;;1.88;1.25;;;;;;;;;;5075903;28;20181;-86
2023/01/31 13:56:22;;;;;;;1.33;1.10;;;;;;;;;;5073859;28;20719;-87
2023/01/31 13:58:52;;;;;;;1.00;1.00;;;;;;;;;;5073759;28;20204;-86
2023/01/31 14:01:21;;;;;;;1.27;1.13;;;;;;;;;;5075474;28;20291;-86
2023/01/31 14:04:28;;;;;;;1.10;1.00;;;;;;;;;;5074848;28;20769;-85
2023/01/31 14:07:13;;;;;;;1.67;1.50;;;;;;;;;;5074279;28;20195;-87
2023/01/31 14:09:46;;;;;;;1.40;1.20;;;;;;;;;;5073176;28;20204;-85
2023/01/31 14:12:33;;;;;;;1.10;1.10;;;;;;;;;;5074062;28;20200;-87
2023/01/31 14:15:07;;;;;;;1.13;0.95;;;;;;;;;;5074701;28;20315;-87
2023/01/31 14:18:01;;;;;;;1.40;1.30;;;;;;;;;;5074955;28;20190;-86
2023/01/31 14:20:31;;;;;;;1.27;1.20;;;;;;;;;;5076171;28;20200;-87
2023/01/31 14:23:33;;;;;;;1.40;1.10;;;;;;;;;;5077323;28;20568;-86
2023/01/31 14:26:24;;;;;;;1.20;1.10;;;;;;;;;;5077103;28;20251;-86
2023/01/31 14:28:51;;;;;;;1.27;1.17;;;;;;;;;;5077472;28;20581;-86
2023/01/31 14:31:21;;;;;;;1.67;1.30;;;;;;;;;;5078258;28;20289;-87
2023/01/31 14:33:49;;;;;;;1.30;1.20;;;;;;;;;;5076186;28;20240;-87
2023/01/31 14:36:40;;;;;;;0.93;0.90;;;;;;;;;;5079366;28;20229;-88
2023/01/31 14:39:39;;;;;;;1.90;1.38;;;;;;;;;;5073100;28;20185;-90
2023/01/31 14:42:54;;;;;;;1.10;1.10;;;;;;;;;;5072997;28;20952;-88
2023/01/31 14:45:50;;;;;;;1.02;1.02;;;;;;;;;;5061872;28;20227;-89
2023/01/31 14:48:38;;;;;;;1.55;1.45;;;;;;;;;;5074739;28;20280;-88
2023/01/31 14:51:20;;;;;;;1.20;1.15;;;;;;;;;;5075344;28;20221;-90
2023/01/31 14:54:17;;;;;;;0.88;0.88;;;;;;;;;;5074750;28;20185;-89
2023/01/31 14:57:03;;;;;;;1.00;1.00;;;;;;;;;;5075715;28;20181;-89
2023/01/31 14:59:34;;;;;;;0.80;0.80;;;;;;;;;;5074581;28;20719;-90
2023/01/31 15:02:23;;;;;;;1.00;1.00;;;;;;;;;;5074947;28;20280;-89
2023/01/31 15:04:58;;;;;;;1.60;1.20;;;;;;;;;;5075498;28;20315;-89
2023/01/31 15:07:25;;;;;;;4.00;3.47;;;;;;;;;;5075810;28;20194;-90
2023/01/31 15:09:54;;;;;;;2.63;2.42;;;;;;;;;;5074108;28;20307;-90
2023/01/31 15:12:58;;;;;;;2.65;2.45;;;;;;;;;;5074013;28;20225;-88
2023/01/31 15:15:32;;;;;;;2.42;2.22;;;;;;;;;;5074365;28;20224;-89
2023/01/31 15:18:02;;;;;;;3.00;2.80;;;;;;;;;;5075518;28;20284;-89
2023/01/31 15:20:42;;;;;;;1.88;1.77;;;;;;;;;;5059382;28;20560;-89
2023/01/31 15:23:40;;;;;;;2.75;2.55;;;;;;;;;;5058481;28;20196;-90
2023/01/31 15:26:09;;;;;;;2.35;2.15;;;;;;;;;;5058775;28;20229;-89